KTAD/TAD METAR and TAF weather

Enter ICAO airport designator
Station Type Date Time Source
KTAD METAR 2019/12/10 05:54 UTC NOAA

KTAD 100554Z AUTO 33006KT 10SM CLR M07/M11 A3006 RMK AO2 SLP205 T10721106 10011 21072 53006


Station Type Date Time Source
KTAD Decoded METAR 2019/12/10 05:54 UTC NOAA

Trinidad, Perry Stokes Airport, CO, United States (KTAD) 37-16N 104-26W
Dec 10, 2019 - 12:54 AM EST / 2019.12.10 0554 UTC
Wind: from the NNW (330 degrees) at 7 MPH (6 KT):0
Visibility: 10 mile(s):0
Sky conditions: clear
Temperature: 19.0 F (-7.2 C)
Windchill: 10 F (-12 C):1
Dew Point: 12.9 F (-10.6 C)
Relative Humidity: 76%
Pressure (altimeter): 30.06 in. Hg (1017 hPa)
Pressure tendency: 0.02 inches (0.6 hPa) higher than three hours ago
ob: KTAD 100554Z AUTO 33006KT 10SM CLR M07/M11 A3006 RMK AO2 SLP205 T10721106 10011 21072 53006
cycle: 6

Station Type Date Time Source
KTAD TAF UTC NOAA

Error!

Example: see airport list